Time;durP1;ratioP1;P1;durP2;ratioP2;P2;SDS_P1;SDS_P2;PMS_P1;PMS_P2;Temp;Humidity;BMP_temperature;BMP_pressure;BME280_temperature;BME280_humidity;BME280_pressure;Samples;Min_cycle;Max_cycle;Signal;HPM_P1;HPM_P2
2021/09/11 00:02:38;;;;;;;8.85;5.65;;;;;;;18.46;80.48;101313.56;6277898;22;20008;-73
2021/09/11 00:05:24;;;;;;;11.75;5.80;;;;;;;18.34;80.63;101311.41;6277826;22;20004;-73
2021/09/11 00:08:10;;;;;;;14.18;5.85;;;;;;;18.21;81.42;101309.25;6277960;22;20049;-73
2021/09/11 00:10:56;;;;;;;11.32;6.03;;;;;;;18.25;81.50;101308.22;6277767;22;20003;-73
2021/09/11 00:13:41;;;;;;;9.80;5.28;;;;;;;18.37;79.88;101307.75;6278060;22;20004;-73
2021/09/11 00:16:27;;;;;;;11.13;5.78;;;;;;;18.33;79.65;101299.00;6277239;22;20053;-73
2021/09/11 00:19:13;;;;;;;12.60;5.82;;;;;;;18.17;81.61;101302.34;6277526;22;20022;-73
2021/09/11 00:21:59;;;;;;;10.70;5.45;;;;;;;18.13;82.88;101306.88;6276916;22;20022;-73
2021/09/11 00:24:45;;;;;;;8.82;5.38;;;;;;;18.05;82.91;101303.66;6278017;22;20004;-73
2021/09/11 00:27:31;;;;;;;9.45;5.60;;;;;;;18.17;80.50;101315.59;6277084;22;20007;-73
2021/09/11 00:30:16;;;;;;;8.70;5.30;;;;;;;18.18;80.43;101309.38;6277722;22;20019;-73
2021/09/11 00:33:02;;;;;;;16.60;5.43;;;;;;;17.93;82.08;101311.25;6277124;22;20019;-73
2021/09/11 00:35:48;;;;;;;7.75;5.40;;;;;;;17.63;85.38;101302.66;6277290;22;20019;-73
2021/09/11 00:38:34;;;;;;;13.27;5.93;;;;;;;17.77;84.08;101299.50;6277217;22;20310;-73
2021/09/11 00:41:20;;;;;;;7.57;5.88;;;;;;;17.51;87.77;101299.56;6277569;22;20039;-73
2021/09/11 00:44:06;;;;;;;12.40;5.97;;;;;;;17.64;87.81;101300.88;6277345;22;20413;-73
2021/09/11 00:46:52;;;;;;;12.23;6.22;;;;;;;17.59;89.22;101297.50;6277679;22;20045;-73
2021/09/11 00:49:37;;;;;;;15.95;6.00;;;;;;;17.19;92.87;101292.75;6277130;22;20065;-73
2021/09/11 00:52:23;;;;;;;9.23;5.50;;;;;;;17.29;95.08;101298.59;6278529;22;20004;-73
2021/09/11 00:55:11;;;;;;;11.93;5.72;;;;;;;17.20;99.56;101299.78;6277083;22;20008;-73
2021/09/11 00:57:58;;;;;;;10.82;5.93;;;;;;;17.15;100.00;101298.22;6276605;22;20082;-73
2021/09/11 01:00:44;;;;;;;13.77;5.82;;;;;;;17.10;100.00;101295.75;6277274;22;20007;-73
2021/09/11 01:03:30;;;;;;;10.98;5.93;;;;;;;17.15;100.00;101290.25;6277516;22;20004;-73
2021/09/11 01:06:16;;;;;;;9.23;5.82;;;;;;;17.13;100.00;101292.13;6277072;22;20003;-73
2021/09/11 01:09:02;;;;;;;12.68;6.70;;;;;;;17.13;100.00;101289.47;6276960;22;20467;-73
2021/09/11 01:11:48;;;;;;;20.08;7.05;;;;;;;16.85;100.00;101291.34;6277148;22;20003;-73
2021/09/11 01:14:33;;;;;;;12.05;6.88;;;;;;;17.05;100.00;101288.88;6277896;22;20292;-73
2021/09/11 01:17:19;;;;;;;16.73;7.15;;;;;;;16.62;100.00;101296.53;6274686;22;20086;-73
2021/09/11 01:20:06;;;;;;;12.32;6.78;;;;;;;16.77;100.00;101288.97;6276973;22;20018;-73
2021/09/11 01:22:52;;;;;;;13.02;6.78;;;;;;;17.02;100.00;101292.50;6276756;22;20428;-73
2021/09/11 01:25:38;;;;;;;29.95;10.13;;;;;;;17.35;99.00;101296.59;6276585;22;20004;-73
2021/09/11 01:28:27;;;;;;;33.58;10.73;;;;;;;17.38;99.38;101300.91;6276364;22;20069;-73
2021/09/11 01:31:13;;;;;;;19.50;8.65;;;;;;;17.42;98.98;101298.16;6276781;22;20014;-73
2021/09/11 01:33:58;;;;;;;23.45;8.23;;;;;;;17.41;98.39;101308.78;6275357;22;19999;-73
2021/09/11 01:36:44;;;;;;;18.20;8.13;;;;;;;17.42;98.28;101294.63;6276588;22;20096;-73
2021/09/11 01:39:30;;;;;;;15.27;7.88;;;;;;;17.52;96.53;101296.03;6275548;22;20046;-73
2021/09/11 01:42:21;;;;;;;15.05;7.70;;;;;;;17.59;96.46;101300.16;6278064;22;20014;-73
2021/09/11 01:45:12;;;;;;;14.13;8.73;;;;;;;17.48;95.80;101295.25;6276374;22;20406;-73
2021/09/11 01:47:57;;;;;;;12.55;8.82;;;;;;;17.62;93.17;101305.34;6276838;22;20003;-73
2021/09/11 01:50:43;;;;;;;18.65;8.98;;;;;;;17.55;91.84;101302.06;6276637;22;20004;-73
2021/09/11 01:53:29;;;;;;;14.85;9.32;;;;;;;17.59;90.72;101297.50;6276765;22;20007;-73
2021/09/11 01:56:15;;;;;;;14.85;8.65;;;;;;;17.41;92.45;101301.69;6276359;22;20021;-73
2021/09/11 01:59:00;;;;;;;16.90;8.70;;;;;;;16.79;95.32;101304.75;6276745;22;20072;-73
2021/09/11 02:01:46;;;;;;;13.85;8.10;;;;;;;16.97;94.63;101310.31;6275967;22;20041;-73
2021/09/11 02:04:32;;;;;;;13.32;8.52;;;;;;;16.40;98.90;101309.53;6277047;22;20042;-73
2021/09/11 02:07:18;;;;;;;11.50;7.97;;;;;;;16.23;100.00;101305.72;6276743;22;20007;-73
2021/09/11 02:10:06;;;;;;;17.15;7.55;;;;;;;16.65;98.01;101302.59;6276049;22;20054;-73
2021/09/11 02:12:52;;;;;;;13.95;7.78;;;;;;;16.54;99.86;101295.91;6277431;22;20006;-73
2021/09/11 02:15:38;;;;;;;12.70;8.48;;;;;;;16.94;96.01;101301.59;6276106;22;20004;-73
2021/09/11 02:18:23;;;;;;;14.57;8.75;;;;;;;17.10;94.43;101308.09;6277155;22;20058;-73
2021/09/11 02:21:09;;;;;;;13.18;8.60;;;;;;;17.04;94.30;101303.88;6276379;22;20003;-73
2021/09/11 02:23:55;;;;;;;16.50;8.43;;;;;;;17.24;91.71;101298.75;6276510;22;20077;-73
2021/09/11 02:26:42;;;;;;;15.30;8.10;;;;;;;16.10;100.00;101307.00;6276233;22;20008;-73
2021/09/11 02:29:28;;;;;;;19.80;7.90;;;;;;;15.96;100.00;101309.19;6276434;22;20027;-73
2021/09/11 02:32:13;;;;;;;11.75;8.18;;;;;;;16.06;100.00;101306.22;6275820;22;20082;-73
2021/09/11 02:34:59;;;;;;;18.90;8.98;;;;;;;15.59;100.00;101306.75;6277460;22;20007;-73
2021/09/11 02:37:45;;;;;;;14.73;9.00;;;;;;;16.29;100.00;101305.50;6275767;22;20386;-73
2021/09/11 02:40:31;;;;;;;12.13;8.40;;;;;;;16.58;100.00;101305.47;6275886;22;20003;-73
2021/09/11 02:43:17;;;;;;;15.73;9.43;;;;;;;16.73;98.48;101310.28;6276375;22;20306;-73
2021/09/11 02:46:02;;;;;;;13.43;8.65;;;;;;;16.49;99.86;101311.06;6276857;22;20008;-73
2021/09/11 02:48:48;;;;;;;12.50;8.43;;;;;;;16.36;100.00;101307.91;6277781;22;20010;-73
2021/09/11 02:51:34;;;;;;;12.77;8.98;;;;;;;15.45;100.00;101314.22;6279024;22;20007;-73
2021/09/11 02:54:20;;;;;;;13.32;8.60;;;;;;;16.22;100.00;101312.78;6277803;22;20061;-73
2021/09/11 02:57:06;;;;;;;14.30;8.93;;;;;;;16.55;99.94;101314.38;6276755;22;20019;-73
2021/09/11 02:59:51;;;;;;;15.90;8.38;;;;;;;16.71;98.47;101312.09;6279510;22;20014;-73
2021/09/11 03:02:37;;;;;;;12.40;8.35;;;;;;;16.75;98.06;101306.66;6276520;22;20012;-73
2021/09/11 03:05:23;;;;;;;13.75;8.35;;;;;;;16.68;98.21;101306.91;6277026;22;20445;-73
2021/09/11 03:08:09;;;;;;;16.27;8.45;;;;;;;16.28;100.00;101312.56;6279142;22;20434;-73
2021/09/11 03:10:55;;;;;;;19.55;8.90;;;;;;;16.63;99.22;101309.69;6276906;22;20000;-72
2021/09/11 03:13:42;;;;;;;14.35;8.48;;;;;;;16.82;97.49;101304.66;6277296;22;20003;-73
2021/09/11 03:16:28;;;;;;;14.77;8.85;;;;;;;16.79;96.51;101310.94;6277567;22;20019;-73
2021/09/11 03:19:14;;;;;;;17.15;8.82;;;;;;;16.34;100.00;101316.81;6276665;22;20133;-73
2021/09/11 03:21:59;;;;;;;15.20;8.20;;;;;;;16.68;97.31;101309.56;6277856;22;20017;-73
2021/09/11 03:24:45;;;;;;;15.10;8.10;;;;;;;16.23;100.00;101309.22;6278224;22;19999;-73
2021/09/11 03:27:31;;;;;;;14.85;7.50;;;;;;;16.19;100.00;101320.78;6279604;22;20007;-73
2021/09/11 03:30:17;;;;;;;15.18;7.57;;;;;;;16.55;99.10;101321.47;6277558;22;20077;-73
2021/09/11 03:33:03;;;;;;;12.85;7.88;;;;;;;16.52;98.85;101321.56;6277817;22;20012;-73
2021/09/11 03:35:48;;;;;;;14.05;7.68;;;;;;;16.38;99.34;101321.09;6277687;22;19999;-73
2021/09/11 03:38:34;;;;;;;14.48;8.45;;;;;;;16.40;100.00;101319.28;6276733;22;20079;-73
2021/09/11 03:41:20;;;;;;;16.80;8.73;;;;;;;16.18;100.00;101316.44;6277672;22;20090;-73
2021/09/11 03:44:06;;;;;;;16.08;8.68;;;;;;;16.21;100.00;101318.97;6276737;22;20040;-73
2021/09/11 03:46:52;;;;;;;19.13;9.35;;;;;;;16.14;100.00;101322.72;6278383;22;20050;-73
2021/09/11 03:49:37;;;;;;;15.68;8.85;;;;;;;16.02;100.00;101316.94;6278961;22;20145;-73
2021/09/11 03:52:23;;;;;;;14.30;8.85;;;;;;;16.06;100.00;101322.09;6277555;22;20403;-73
2021/09/11 03:55:09;;;;;;;14.88;9.35;;;;;;;16.30;100.00;101323.09;6277630;22;20008;-73
2021/09/11 03:57:55;;;;;;;15.48;8.68;;;;;;;16.10;100.00;101322.84;6278960;22;20026;-73
2021/09/11 04:00:41;;;;;;;13.82;8.77;;;;;;;16.39;100.00;101321.03;6277996;22;20004;-73
2021/09/11 04:03:27;;;;;;;12.00;8.18;;;;;;;16.35;100.00;101332.63;6276381;22;20083;-73
2021/09/11 04:06:13;;;;;;;14.23;8.02;;;;;;;16.38;100.00;101329.03;6278614;22;20395;-73
2021/09/11 04:08:59;;;;;;;12.93;7.32;;;;;;;16.20;100.00;101327.81;6277401;22;20019;-73
2021/09/11 04:11:45;;;;;;;14.57;7.97;;;;;;;16.26;100.00;101327.63;6277925;22;20498;-73
2021/09/11 04:14:30;;;;;;;13.23;6.95;;;;;;;16.04;100.00;101329.19;6276764;22;20008;-73
2021/09/11 04:17:16;;;;;;;13.50;7.65;;;;;;;16.36;100.00;101337.00;6277429;22;20012;-73
2021/09/11 04:20:02;;;;;;;11.63;7.82;;;;;;;16.48;100.00;101335.81;6277160;22;20311;-72
2021/09/11 04:22:48;;;;;;;14.20;7.53;;;;;;;16.45;99.77;101333.25;6276861;22;20406;-72
2021/09/11 04:25:34;;;;;;;10.13;6.72;;;;;;;16.37;100.00;101337.88;6276133;22;20015;-72
2021/09/11 04:28:19;;;;;;;12.80;7.18;;;;;;;16.50;99.30;101333.97;6275351;22;20039;-72
2021/09/11 04:31:05;;;;;;;11.60;7.05;;;;;;;16.22;100.00;101338.34;6277608;22;20011;-72
2021/09/11 04:33:51;;;;;;;14.23;7.10;;;;;;;16.25;100.00;101335.59;6276866;22;20446;-72
2021/09/11 04:36:37;;;;;;;20.17;8.15;;;;;;;16.23;100.00;101337.44;6275377;22;20004;-73
2021/09/11 04:39:23;;;;;;;10.25;6.80;;;;;;;16.43;100.00;101341.22;6276941;22;20007;-73
2021/09/11 04:42:08;;;;;;;9.57;7.20;;;;;;;16.70;98.18;101345.66;6277898;22;20003;-72
2021/09/11 04:44:54;;;;;;;13.52;7.72;;;;;;;16.72;98.10;101348.25;6276985;22;20356;-73
2021/09/11 04:47:40;;;;;;;12.20;7.32;;;;;;;16.68;98.58;101346.63;6277616;22;20437;-72
2021/09/11 04:50:26;;;;;;;11.68;7.18;;;;;;;16.66;98.89;101345.78;6277323;22;20402;-73
2021/09/11 04:53:12;;;;;;;17.33;7.15;;;;;;;16.33;100.00;101355.63;6276684;22;20004;-73
2021/09/11 04:55:57;;;;;;;12.05;7.80;;;;;;;16.50;100.00;101348.06;6274958;22;20003;-73
2021/09/11 04:58:43;;;;;;;14.82;7.15;;;;;;;16.48;100.00;101349.88;6277091;22;20314;-73
2021/09/11 05:01:29;;;;;;;9.82;6.47;;;;;;;16.24;100.00;101350.59;6275824;22;20082;-73
2021/09/11 05:04:15;;;;;;;9.95;6.22;;;;;;;16.30;100.00;101358.34;6275675;22;20072;-73
2021/09/11 05:07:00;;;;;;;13.55;6.53;;;;;;;16.33;100.00;101355.63;6277299;22;20090;-73
2021/09/11 05:09:46;;;;;;;14.23;7.07;;;;;;;16.23;100.00;101356.81;6276598;22;20076;-73
2021/09/11 05:12:32;;;;;;;14.38;7.78;;;;;;;16.10;100.00;101354.56;6276933;22;20082;-74
2021/09/11 05:15:18;;;;;;;20.65;7.63;;;;;;;16.16;100.00;101359.69;6277584;22;20067;-73
2021/09/11 05:18:04;;;;;;;14.93;7.68;;;;;;;16.41;100.00;101355.41;6276761;22;20101;-73
2021/09/11 05:20:49;;;;;;;14.85;7.50;;;;;;;16.15;100.00;101350.88;6276442;22;20087;-73
2021/09/11 05:23:35;;;;;;;13.82;7.45;;;;;;;16.30;100.00;101352.19;6276690;22;20004;-72
2021/09/11 05:26:21;;;;;;;11.82;7.20;;;;;;;16.34;100.00;101359.13;6275855;22;20043;-73
2021/09/11 05:29:07;;;;;;;11.35;7.43;;;;;;;16.41;100.00;101364.22;6276614;22;20020;-74
2021/09/11 05:31:52;;;;;;;14.10;6.95;;;;;;;16.31;100.00;101365.38;6277089;22;20003;-73
2021/09/11 05:34:38;;;;;;;11.68;6.82;;;;;;;16.62;100.00;101360.91;6275282;22;20003;-73
2021/09/11 05:37:24;;;;;;;12.60;7.10;;;;;;;16.42;100.00;101359.78;6277337;22;20341;-73
2021/09/11 05:40:10;;;;;;;19.65;6.95;;;;;;;16.53;100.00;101355.03;6276331;22;20014;-73
2021/09/11 05:42:56;;;;;;;18.27;7.28;;;;;;;16.59;100.00;101357.50;6277033;22;20004;-73
2021/09/11 05:45:42;;;;;;;25.13;7.60;;;;;;;16.70;100.00;101353.59;6276674;22;20081;-73
2021/09/11 05:48:27;;;;;;;20.55;6.60;;;;;;;16.85;100.00;101349.56;6277012;22;20398;-72
2021/09/11 05:51:13;;;;;;;20.85;6.43;;;;;;;16.71;100.00;101344.72;6276144;22;20060;-73
2021/09/11 05:53:59;;;;;;;18.90;6.78;;;;;;;16.91;100.00;101354.63;6276913;22;20132;-72
2021/09/11 05:56:45;;;;;;;18.45;6.88;;;;;;;16.94;100.00;101346.59;6276370;22;20394;-72
2021/09/11 05:59:31;;;;;;;17.02;7.15;;;;;;;16.75;100.00;101354.28;6275556;22;20069;-73
2021/09/11 06:02:17;;;;;;;16.45;7.40;;;;;;;16.66;100.00;101357.25;6277023;22;20390;-72
2021/09/11 06:05:03;;;;;;;21.73;7.10;;;;;;;16.67;100.00;101356.31;6276642;22;20122;-73
2021/09/11 06:07:49;;;;;;;18.17;7.28;;;;;;;16.79;100.00;101357.69;6275855;22;20076;-73
2021/09/11 06:10:34;;;;;;;12.43;6.55;;;;;;;16.98;100.00;101356.19;6276199;22;20004;-73
2021/09/11 06:13:20;;;;;;;17.40;7.65;;;;;;;16.86;100.00;101356.59;6275042;22;20014;-73
2021/09/11 06:16:08;;;;;;;15.93;7.30;;;;;;;17.49;100.00;101351.78;6276210;22;20064;-73
2021/09/11 06:18:53;;;;;;;14.95;7.45;;;;;;;17.50;100.00;101341.13;6276494;22;20086;-73
2021/09/11 06:21:39;;;;;;;13.98;7.05;;;;;;;17.32;100.00;101354.13;6276990;22;20073;-73
2021/09/11 06:24:25;;;;;;;11.35;6.43;;;;;;;17.36;100.00;101347.81;6277936;22;20014;-73
2021/09/11 06:27:13;;;;;;;15.07;6.60;;;;;;;17.38;100.00;101349.47;6278186;22;20003;-73
2021/09/11 06:29:58;;;;;;;18.08;7.25;;;;;;;17.39;100.00;101348.53;6277168;22;20426;-73
2021/09/11 06:32:44;;;;;;;12.05;7.50;;;;;;;17.68;100.00;101359.00;6278334;22;20118;-73
2021/09/11 06:35:30;;;;;;;10.65;7.80;;;;;;;17.50;100.00;101358.78;6278114;22;20053;-73
2021/09/11 06:38:16;;;;;;;13.93;6.80;;;;;;;17.50;100.00;101357.03;6276780;22;20008;-73
2021/09/11 06:41:02;;;;;;;11.00;7.25;;;;;;;17.56;100.00;101363.88;6279229;22;20122;-73
2021/09/11 06:43:48;;;;;;;9.88;7.15;;;;;;;17.94;100.00;101363.34;6277354;22;20003;-73
2021/09/11 06:46:33;;;;;;;10.00;6.88;;;;;;;18.01;100.00;101355.09;6277790;22;20015;-73
2021/09/11 06:49:20;;;;;;;13.68;7.43;;;;;;;18.12;100.00;101358.22;6278607;22;20007;-73
2021/09/11 06:52:06;;;;;;;14.27;7.40;;;;;;;18.28;100.00;101358.47;6280624;22;20014;-73
2021/09/11 06:54:51;;;;;;;10.82;8.02;;;;;;;18.06;100.00;101355.81;6277355;22;20015;-73
2021/09/11 06:57:37;;;;;;;12.98;8.15;;;;;;;18.20;100.00;101360.56;6277848;22;20007;-73
2021/09/11 07:00:23;;;;;;;13.75;8.10;;;;;;;18.23;100.00;101361.31;6278200;22;20414;-74
2021/09/11 07:03:09;;;;;;;16.55;8.90;;;;;;;18.45;100.00;101361.38;6277932;22;20030;-73
2021/09/11 07:05:55;;;;;;;15.18;8.93;;;;;;;18.27;100.00;101354.09;6277303;22;20007;-73
2021/09/11 07:08:41;;;;;;;14.95;8.55;;;;;;;19.20;100.00;101352.91;6278591;22;20046;-73
2021/09/11 07:11:26;;;;;;;15.10;9.25;;;;;;;19.17;100.00;101351.25;6278969;22;20330;-73
2021/09/11 07:14:15;;;;;;;13.77;9.05;;;;;;;19.52;98.63;101355.06;6278188;22;20022;-73
2021/09/11 07:17:01;;;;;;;20.33;10.25;;;;;;;20.02;95.04;101356.34;6279160;22;20020;-73
2021/09/11 07:19:47;;;;;;;17.58;10.70;;;;;;;19.09;100.00;101371.97;6277135;22;20065;-72
2021/09/11 07:22:33;;;;;;;20.35;10.30;;;;;;;19.55;99.63;101357.59;6277436;22;20022;-73
2021/09/11 07:25:19;;;;;;;18.33;9.32;;;;;;;19.95;97.01;101362.88;6279249;22;20271;-72
2021/09/11 07:28:05;;;;;;;16.52;9.57;;;;;;;19.78;96.76;101361.91;6277631;22;20310;-73
2021/09/11 07:30:50;;;;;;;16.05;9.45;;;;;;;20.14;95.89;101365.56;6277326;22;20015;-73
2021/09/11 07:33:36;;;;;;;18.60;10.65;;;;;;;20.10;95.08;101354.22;6277715;22;20004;-73
2021/09/11 07:36:22;;;;;;;19.77;10.73;;;;;;;20.12;93.76;101365.63;6276444;22;20022;-73
2021/09/11 07:39:08;;;;;;;12.80;9.88;;;;;;;20.31;95.19;101355.00;6278609;22;20348;-73
2021/09/11 07:41:53;;;;;;;19.13;10.30;;;;;;;20.80;90.62;101365.00;6276607;22;20000;-73
2021/09/11 07:44:39;;;;;;;20.42;10.25;;;;;;;21.39;86.38;101355.78;6278510;22;20439;-73
2021/09/11 07:47:25;;;;;;;20.08;10.93;;;;;;;21.67;83.39;101358.72;6276439;22;20011;-73
2021/09/11 07:50:11;;;;;;;20.25;10.10;;;;;;;21.82;78.07;101355.25;6277950;22;20082;-73
2021/09/11 07:52:57;;;;;;;18.35;10.20;;;;;;;21.76;79.12;101352.94;6277184;22;20014;-73
2021/09/11 07:55:43;;;;;;;18.60;10.45;;;;;;;22.09;77.68;101358.22;6277480;22;20095;-73
2021/09/11 07:58:29;;;;;;;15.02;9.40;;;;;;;22.53;75.74;101351.31;6278122;22;20375;-73
2021/09/11 08:01:15;;;;;;;14.30;9.45;;;;;;;21.63;77.99;101342.94;6277699;22;20015;-72
2021/09/11 08:04:00;;;;;;;15.48;9.10;;;;;;;22.51;74.71;101351.41;6276388;22;20018;-74
2021/09/11 08:06:46;;;;;;;15.98;9.50;;;;;;;23.29;71.01;101337.91;6277244;22;20085;-73
2021/09/11 08:09:32;;;;;;;13.77;8.55;;;;;;;23.61;68.69;101335.97;6277178;22;20011;-73
2021/09/11 08:12:18;;;;;;;16.20;8.65;;;;;;;23.33;65.74;101332.31;6277481;22;20149;-73
2021/09/11 08:15:04;;;;;;;17.52;8.82;;;;;;;23.31;64.75;101342.22;6277582;22;20035;-73
2021/09/11 08:17:50;;;;;;;13.73;8.73;;;;;;;24.22;62.63;101341.94;6277455;22;20008;-73
2021/09/11 08:20:37;;;;;;;17.63;9.45;;;;;;;24.54;59.22;101338.00;6276828;22;20014;-74
2021/09/11 08:23:23;;;;;;;13.05;10.27;;;;;;;24.98;58.01;101339.50;6277009;22;20083;-73
2021/09/11 08:26:09;;;;;;;24.00;12.55;;;;;;;24.74;56.59;101337.59;6278459;22;20007;-73
2021/09/11 08:28:55;;;;;;;26.50;13.90;;;;;;;25.10;54.67;101333.31;6274915;22;20019;-73
2021/09/11 08:31:41;;;;;;;20.60;15.68;;;;;;;25.45;52.21;101334.50;6277618;22;20000;-72
2021/09/11 08:34:26;;;;;;;22.35;14.02;;;;;;;25.39;53.83;101328.69;6277694;22;20000;-72
2021/09/11 08:37:12;;;;;;;24.20;16.65;;;;;;;25.93;50.19;101328.38;6276946;22;20011;-73
2021/09/11 08:39:58;;;;;;;24.50;17.42;;;;;;;26.79;48.04;101322.88;6277543;22;20072;-73
2021/09/11 08:42:44;;;;;;;21.70;17.05;;;;;;;26.55;47.69;101323.81;6277406;22;20003;-73
2021/09/11 08:45:29;;;;;;;22.40;16.27;;;;;;;26.37;46.89;101315.25;6277757;22;20004;-73
2021/09/11 08:48:15;;;;;;;24.70;16.85;;;;;;;26.09;48.22;101317.41;6277183;22;20008;-74
2021/09/11 08:51:01;;;;;;;24.17;17.35;;;;;;;26.05;47.07;101316.78;6279068;22;20004;-74
2021/09/11 08:53:47;;;;;;;26.08;18.35;;;;;;;26.03;48.10;101315.16;6278460;22;20079;-74
2021/09/11 08:56:40;;;;;;;26.25;16.50;;;;;;;25.70;47.67;101298.72;6276741;22;20068;-73
2021/09/11 08:59:26;;;;;;;22.40;15.98;;;;;;;27.31;45.32;101301.84;6277336;22;20003;-73
2021/09/11 09:02:12;;;;;;;26.40;15.88;;;;;;;28.09;42.92;101296.53;6276894;22;20008;-74
2021/09/11 09:04:59;;;;;;;22.95;15.73;;;;;;;26.99;43.72;101289.09;6279199;22;20035;-74
2021/09/11 09:07:45;;;;;;;23.67;15.95;;;;;;;26.78;43.57;101280.84;6277713;22;20007;-74
2021/09/11 09:10:31;;;;;;;30.40;15.40;;;;;;;27.68;41.46;101278.25;6276486;22;20008;-74
2021/09/11 09:13:17;;;;;;;25.25;15.95;;;;;;;27.11;42.06;101280.94;6276677;22;19999;-74
2021/09/11 09:16:13;;;;;;;25.20;15.35;;;;;;;27.25;42.50;101278.06;6277487;22;20020;-74
2021/09/11 09:19:04;;;;;;;28.23;15.88;;;;;;;27.50;41.42;101277.03;6277019;22;20402;-74
2021/09/11 09:21:59;;;;;;;24.75;15.57;;;;;;;27.07;40.43;101271.41;6276625;22;20068;-73
2021/09/11 09:24:45;;;;;;;20.50;15.20;;;;;;;27.27;40.31;101262.69;6276987;22;20008;-74
2021/09/11 09:27:31;;;;;;;24.38;15.38;;;;;;;27.66;40.29;101261.38;6277368;22;20003;-74
2021/09/11 09:30:22;;;;;;;26.60;16.13;;;;;;;27.36;40.00;101253.00;6276585;22;20019;-74
2021/09/11 09:33:18;;;;;;;23.35;16.30;;;;;;;27.39;38.91;101250.09;6274860;22;20012;-73
2021/09/11 09:36:04;;;;;;;22.50;16.17;;;;;;;27.44;39.01;101243.38;6275687;22;19999;-73
2021/09/11 09:39:00;;;;;;;24.77;16.30;;;;;;;27.69;38.35;101246.78;6275998;22;20074;-73
2021/09/11 09:41:49;;;;;;;25.35;15.93;;;;;;;26.91;38.81;101240.41;6276703;22;20096;-73
2021/09/11 09:44:46;;;;;;;28.63;15.70;;;;;;;27.69;38.02;101249.50;6275486;22;20397;-73
2021/09/11 09:47:32;;;;;;;21.10;15.18;;;;;;;27.49;37.74;101248.41;6277051;22;20015;-73
2021/09/11 09:50:19;;;;;;;23.50;14.43;;;;;;;27.94;37.99;101241.19;6276079;22;20019;-73
2021/09/11 09:53:07;;;;;;;21.95;13.93;;;;;;;28.10;37.34;101239.81;6276903;22;20027;-73
2021/09/11 09:55:52;;;;;;;19.02;13.77;;;;;;;27.30;37.88;101240.06;6275784;22;20019;-73
2021/09/11 09:58:38;;;;;;;17.70;12.52;;;;;;;27.62;36.82;101222.19;6277114;22;20424;-74
2021/09/11 10:01:25;;;;;;;19.17;12.70;;;;;;;28.16;37.13;101230.38;6276728;22;20039;-73
2021/09/11 10:04:14;;;;;;;13.52;11.07;;;;;;;28.43;35.12;101228.97;6277860;22;20361;-73
2021/09/11 10:07:03;;;;;;;30.25;18.55;;;;;;;28.24;34.76;101220.66;6277066;22;20004;-73
2021/09/11 10:09:50;;;;;;;26.65;19.08;;;;;;;28.45;35.03;101223.44;6276086;22;20004;-73
2021/09/11 10:12:41;;;;;;;21.23;16.20;;;;;;;27.66;35.91;101229.06;6276300;22;20003;-73
2021/09/11 10:15:33;;;;;;;26.45;17.13;;;;;;;28.17;35.77;101218.59;6275979;22;20081;-73
2021/09/11 10:18:34;;;;;;;21.50;16.63;;;;;;;27.35;35.80;101213.63;6276914;22;20008;-73
2021/09/11 10:21:34;;;;;;;21.92;15.15;;;;;;;27.91;35.49;101217.16;6276841;22;20054;-73
2021/09/11 10:24:23;;;;;;;17.13;12.20;;;;;;;28.18;34.87;101215.78;6277254;22;20018;-73
2021/09/11 10:27:20;;;;;;;20.45;10.38;;;;;;;28.63;34.19;101213.81;6276845;22;20015;-73
2021/09/11 10:30:09;;;;;;;21.08;10.23;;;;;;;28.38;34.47;101217.69;6276223;22;20030;-73
2021/09/11 10:32:55;;;;;;;19.20;11.23;;;;;;;28.83;33.20;101204.88;6275225;22;20406;-73
2021/09/11 10:35:41;;;;;;;23.75;12.75;;;;;;;28.75;32.95;101205.53;6276584;22;20030;-73
2021/09/11 10:38:41;;;;;;;20.08;14.95;;;;;;;28.74;33.42;101209.22;6277497;22;20087;-73
2021/09/11 10:41:31;;;;;;;24.95;15.60;;;;;;;29.38;33.61;101204.53;6276060;22;20134;-73
2021/09/11 10:44:16;;;;;;;21.63;15.40;;;;;;;29.31;32.69;101204.22;6276937;22;20015;-73
2021/09/11 10:47:02;;;;;;;18.70;11.75;;;;;;;28.89;32.50;101196.28;6275315;22;20014;-73
2021/09/11 10:50:11;;;;;;;20.42;13.25;;;;;;;28.85;33.11;101197.53;6276443;22;20011;-73
2021/09/11 10:52:57;;;;;;;21.25;11.20;;;;;;;29.23;32.47;101195.06;6276255;22;20004;-73
2021/09/11 10:55:43;;;;;;;12.38;7.55;;;;;;;29.71;32.06;101196.19;6276499;22;20003;-73
2021/09/11 10:58:28;;;;;;;10.93;5.45;;;;;;;29.37;31.06;101192.88;6275816;22;20004;-73
2021/09/11 11:01:14;;;;;;;12.30;5.68;;;;;;;29.24;30.90;101189.53;6276489;22;20126;-73
2021/09/11 11:04:09;;;;;;;13.63;5.20;;;;;;;29.79;30.80;101183.69;6275993;22;20015;-73
2021/09/11 11:06:57;;;;;;;14.75;5.45;;;;;;;29.78;30.44;101187.38;6278032;22;20276;-74
2021/09/11 11:09:45;;;;;;;13.02;5.47;;;;;;;29.88;30.68;101177.47;6278846;22;20042;-74
2021/09/11 11:12:34;;;;;;;10.63;5.90;;;;;;;29.77;29.77;101171.31;6278836;22;20398;-74
2021/09/11 11:15:28;;;;;;;10.27;5.35;;;;;;;29.97;30.18;101170.38;6278215;22;20057;-74
2021/09/11 11:18:14;;;;;;;10.60;6.63;;;;;;;29.87;30.56;101173.06;6277924;22;20441;-74
2021/09/11 11:20:59;;;;;;;17.63;6.40;;;;;;;29.93;29.92;101164.38;6277392;22;20045;-74
2021/09/11 11:23:46;;;;;;;10.13;5.55;;;;;;;29.72;29.96;101168.16;6277878;22;20035;-74
2021/09/11 11:26:33;;;;;;;11.55;5.53;;;;;;;29.83;30.13;101157.25;6277475;22;20014;-74
2021/09/11 11:29:22;;;;;;;9.93;5.47;;;;;;;30.37;30.38;101157.59;6278437;22;20319;-74
2021/09/11 11:32:08;;;;;;;8.75;5.63;;;;;;;30.19;30.11;101152.09;6278119;22;20425;-74
2021/09/11 11:35:00;;;;;;;8.80;5.22;;;;;;;30.24;29.60;101149.81;6277785;22;20069;-73
2021/09/11 11:37:45;;;;;;;11.52;6.00;;;;;;;30.22;29.61;101143.66;6277810;22;20332;-73
2021/09/11 11:40:31;;;;;;;11.85;5.72;;;;;;;30.42;29.46;101150.78;6278088;22;20446;-74
2021/09/11 11:43:17;;;;;;;12.68;5.78;;;;;;;30.56;29.68;101135.97;6278333;22;20031;-73
2021/09/11 11:46:03;;;;;;;12.27;5.50;;;;;;;30.99;29.03;101137.19;6277578;22;20018;-72
2021/09/11 11:48:49;;;;;;;13.43;6.05;;;;;;;30.40;29.19;101130.28;6277963;22;20038;-73
2021/09/11 11:51:34;;;;;;;11.13;6.55;;;;;;;30.82;28.99;101129.00;6277449;22;20014;-73
2021/09/11 11:54:21;;;;;;;12.52;6.63;;;;;;;30.96;29.18;101121.25;6277467;22;20007;-73
2021/09/11 11:57:11;;;;;;;14.43;6.32;;;;;;;30.32;29.26;101128.31;6276675;22;20283;-73
2021/09/11 11:59:59;;;;;;;13.27;6.93;;;;;;;30.98;29.25;101124.66;6278343;22;20004;-74
2021/09/11 12:02:47;;;;;;;10.82;7.50;;;;;;;30.40;29.64;101123.03;6277611;22;20004;-74
2021/09/11 12:05:42;;;;;;;9.35;6.72;;;;;;;30.69;29.42;101126.59;6277665;22;20054;-74
2021/09/11 12:08:29;;;;;;;10.35;7.25;;;;;;;30.55;29.38;101120.75;6277646;22;20018;-74
2021/09/11 12:11:23;;;;;;;18.75;8.30;;;;;;;30.12;29.25;101115.75;6277828;22;20010;-74
2021/09/11 12:14:09;;;;;;;13.82;6.82;;;;;;;30.40;29.84;101112.22;6256492;22;20286;-74
2021/09/11 12:16:55;;;;;;;11.95;5.95;;;;;;;30.17;29.96;101110.81;6275959;22;20012;-74
2021/09/11 12:19:42;;;;;;;12.27;6.28;;;;;;;29.91;29.54;101116.88;6278124;22;20014;-73
2021/09/11 12:22:28;;;;;;;27.40;22.70;;;;;;;30.27;30.20;101106.25;6276796;22;20004;-73
2021/09/11 12:25:13;;;;;;;16.67;6.35;;;;;;;30.39;30.15;101101.56;6277374;22;20267;-73
2021/09/11 12:27:59;;;;;;;9.25;6.30;;;;;;;30.24;29.61;101108.38;6277295;22;20003;-73
2021/09/11 12:30:51;;;;;;;11.20;5.93;;;;;;;30.10;29.97;101093.41;6277915;22;20026;-73
2021/09/11 12:33:48;;;;;;;10.98;5.97;;;;;;;30.30;30.07;101097.84;6277005;22;20041;-73
2021/09/11 12:36:42;;;;;;;12.88;7.28;;;;;;;30.46;29.25;101090.00;6277090;22;20003;-73
2021/09/11 12:39:29;;;;;;;11.30;5.95;;;;;;;30.98;29.04;101085.94;6277140;22;20083;-73
2021/09/11 12:42:17;;;;;;;8.85;6.00;;;;;;;30.58;29.14;101080.72;6277339;22;20303;-73